Ussuriysk, Russia
Current Conditions -  °F | °C
As of 2:30 AM on Wednesday 22 Oct 2014 (Local Time) from UHWW Reporting Station
Clear Clear  
Wind Chill: 21°   Ceiling: Unl
Heat Index: 21°   Visibility: 6mi
Dew Point: 14°   Wind: 0mph
Humidity: 74%   Direction: NA
Pressure: 30.24"   Gusts: NA
Location:  43.8°N, 132.01°E
Report Text: UHWW 211630Z 00000MPS 9999 SKC M06/M10 Q1024 NOSIG RMKQFE767/1023 25CLRD70
Loading
Personal Weather Stations






























Interactive Weather Map
Tropical Storm Tracking
New forecast layout! Learn more

10-Day Weather Forecast

Advertisements
Track Severe Weather on mobile